createdAt,value
2018-12-17T00:02:00.418Z,11.20
2018-12-17T00:04:31.589Z,10.77
2018-12-17T00:07:02.140Z,9.93
2018-12-17T00:09:30.631Z,13.53
2018-12-17T00:11:59.096Z,16.17
2018-12-17T00:14:27.578Z,15.33
2018-12-17T00:16:56.041Z,14.17
2018-12-17T00:19:24.751Z,14.17
2018-12-17T00:21:53.224Z,12.60
2018-12-17T00:24:21.925Z,13.57
2018-12-17T00:26:51.397Z,11.87
2018-12-17T00:29:19.892Z,12.23
2018-12-17T00:31:48.360Z,11.07
2018-12-17T00:34:17.229Z,11.20
2018-12-17T00:36:45.943Z,10.07
2018-12-17T00:39:14.644Z,10.33
2018-12-17T00:41:43.133Z,12.57
2018-12-17T00:44:11.572Z,11.07
2018-12-17T00:46:40.064Z,9.70
2018-12-17T00:49:08.547Z,15.17
2018-12-17T00:51:37.265Z,13.33
2018-12-17T00:54:05.708Z,11.70
2018-12-17T00:56:34.440Z,16.00
2018-12-17T00:59:03.311Z,9.37
2018-12-17T01:01:31.978Z,13.03
2018-12-17T01:04:00.511Z,9.83
2018-12-17T01:06:29.355Z,14.20
2018-12-17T01:08:58.457Z,9.30
2018-12-17T01:11:26.925Z,8.10
2018-12-17T01:13:55.607Z,11.37
2018-12-17T01:16:24.080Z,9.07
2018-12-17T01:18:52.579Z,10.87
2018-12-17T01:21:21.390Z,10.57
2018-12-17T01:23:50.430Z,11.33
2018-12-17T01:26:19.664Z,8.33
2018-12-17T01:28:48.682Z,10.50
2018-12-17T01:31:17.217Z,10.53
2018-12-17T01:33:45.942Z,10.83
2018-12-17T01:36:14.598Z,9.37
2018-12-17T01:38:44.312Z,12.87
2018-12-17T01:41:13.024Z,13.17
2018-12-17T01:43:41.471Z,12.77
2018-12-17T01:46:09.952Z,12.60
2018-12-17T01:48:38.446Z,9.30
2018-12-17T01:51:06.917Z,11.03
2018-12-17T01:53:35.377Z,9.30
2018-12-17T01:56:04.111Z,10.20
2018-12-17T01:58:32.560Z,9.50
2018-12-17T02:01:01.256Z,7.40
2018-12-17T02:03:30.004Z,13.10
2018-12-17T02:05:58.986Z,12.43
2018-12-17T02:08:27.638Z,12.47
2018-12-17T02:10:56.560Z,9.07
2018-12-17T02:13:25.086Z,9.27
2018-12-17T02:15:53.545Z,8.00
2018-12-17T02:18:22.068Z,13.33
2018-12-17T02:20:50.740Z,9.50
2018-12-17T02:23:19.199Z,8.67
2018-12-17T02:25:47.701Z,11.57
2018-12-17T02:28:16.365Z,8.73
2018-12-17T02:30:45.067Z,11.77
2018-12-17T02:33:13.936Z,8.87
2018-12-17T02:35:42.646Z,12.07
2018-12-17T02:38:11.339Z,9.83
2018-12-17T02:40:40.045Z,11.37
2018-12-17T02:43:08.896Z,8.23
2018-12-17T02:45:38.610Z,10.07
2018-12-17T02:48:07.313Z,13.13
2018-12-17T02:50:35.780Z,13.00
2018-12-17T02:53:04.496Z,12.77
2018-12-17T02:55:33.156Z,11.83
2018-12-17T02:58:01.611Z,9.23
2018-12-17T03:00:30.094Z,9.33
2018-12-17T03:02:58.633Z,10.00
2018-12-17T03:05:27.483Z,10.13
2018-12-17T03:07:55.966Z,9.57
2018-12-17T03:10:24.444Z,11.13
2018-12-17T03:12:52.921Z,10.17
2018-12-17T03:15:21.974Z,7.03
2018-12-17T03:17:50.724Z,8.23
2018-12-17T03:20:19.186Z,8.97
2018-12-17T03:22:47.644Z,11.43
2018-12-17T03:25:16.212Z,11.37
2018-12-17T03:27:44.919Z,15.87
2018-12-17T03:30:13.504Z,15.03
2018-12-17T03:32:42.225Z,15.33
2018-12-17T03:35:10.922Z,11.40
2018-12-17T03:37:39.576Z,16.43
2018-12-17T03:40:07.936Z,18.43
2018-12-17T03:42:36.310Z,16.57
2018-12-17T03:48:00.543Z,20.93
2018-12-17T03:50:29.214Z,12.70
2018-12-17T03:52:57.902Z,13.40
2018-12-17T03:55:26.615Z,13.37
2018-12-17T03:57:55.493Z,13.90
2018-12-17T04:00:24.770Z,12.57
2018-12-17T04:02:53.278Z,10.80
2018-12-17T04:05:21.941Z,11.37
2018-12-17T04:07:50.627Z,10.33
2018-12-17T04:10:19.344Z,10.47
2018-12-17T04:12:47.929Z,17.93
2018-12-17T04:15:17.143Z,11.57
2018-12-17T04:17:45.792Z,14.80
2018-12-17T04:20:14.480Z,11.57
2018-12-17T04:22:43.126Z,12.50
2018-12-17T04:25:11.856Z,15.60
2018-12-17T04:27:40.298Z,12.67
2018-12-17T04:30:09.044Z,13.67
2018-12-17T04:32:37.494Z,12.43
2018-12-17T04:35:05.957Z,12.83
2018-12-17T04:37:34.655Z,11.47
2018-12-17T04:40:03.284Z,11.93
2018-12-17T04:42:31.793Z,10.43
2018-12-17T04:45:00.500Z,10.83
2018-12-17T04:47:29.223Z,10.20
2018-12-17T04:49:57.714Z,7.50
2018-12-17T04:52:26.563Z,12.37
2018-12-17T04:54:55.456Z,11.60
2018-12-17T04:57:23.779Z,12.47
2018-12-17T04:59:52.623Z,11.33
2018-12-17T05:02:21.701Z,16.20
2018-12-17T05:04:50.785Z,13.90
2018-12-17T05:07:19.894Z,13.30
2018-12-17T05:09:49.170Z,13.20
2018-12-17T05:12:18.265Z,12.50
2018-12-17T05:14:48.144Z,11.43
2018-12-17T05:17:17.313Z,13.53
2018-12-17T05:19:46.542Z,15.07
2018-12-17T05:22:15.511Z,12.67
2018-12-17T05:24:45.421Z,11.70
2018-12-17T05:27:14.695Z,12.70
2018-12-17T05:29:43.782Z,13.43
2018-12-17T05:32:13.312Z,12.93
2018-12-17T05:34:42.383Z,11.67
2018-12-17T05:37:11.476Z,9.73
2018-12-17T05:39:40.341Z,9.80
2018-12-17T05:42:09.627Z,10.47
2018-12-17T05:44:38.800Z,10.33
2018-12-17T05:47:08.845Z,12.97
2018-12-17T05:49:37.995Z,13.23
2018-12-17T05:52:07.074Z,15.70
2018-12-17T05:54:36.146Z,16.47
2018-12-17T05:57:05.278Z,18.30
2018-12-17T05:59:34.066Z,24.37
2018-12-17T06:02:04.384Z,27.80
2018-12-17T06:04:33.533Z,19.97
2018-12-17T06:07:02.567Z,17.13
2018-12-17T06:09:31.612Z,17.57
2018-12-17T06:12:00.696Z,15.43
2018-12-17T06:14:29.763Z,16.50
2018-12-17T06:16:58.947Z,14.53
2018-12-17T06:19:27.462Z,17.30
2018-12-17T06:21:55.922Z,19.80
2018-12-17T06:24:25.429Z,14.80
2018-12-17T06:26:54.481Z,20.27
2018-12-17T06:29:22.909Z,17.90
2018-12-17T06:31:53.038Z,14.67
2018-12-17T06:34:23.786Z,14.37
2018-12-17T06:36:53.971Z,13.53
2018-12-17T06:39:24.443Z,13.37
2018-12-17T06:41:55.740Z,23.23
2018-12-17T06:44:25.641Z,26.93
2018-12-17T06:47:00.207Z,37.77
2018-12-17T06:49:31.263Z,23.10
2018-12-17T06:52:01.831Z,23.67
2018-12-17T06:54:30.474Z,21.77
2018-12-17T06:56:59.938Z,21.77
2018-12-17T06:59:29.805Z,20.30
2018-12-17T07:01:59.668Z,21.57
2018-12-17T07:04:28.849Z,17.23
2018-12-17T07:06:57.889Z,16.37
2018-12-17T07:09:26.682Z,13.50
2018-12-17T07:11:55.838Z,20.23
2018-12-17T07:14:25.236Z,19.67
2018-12-17T07:16:54.171Z,16.93
2018-12-17T07:19:23.070Z,22.20
2018-12-17T07:21:51.889Z,42.37
2018-12-17T07:24:20.617Z,33.97
2018-12-17T07:26:49.361Z,26.43
2018-12-17T07:29:17.779Z,22.77
2018-12-17T07:31:46.255Z,23.20
2018-12-17T07:34:14.985Z,23.53
2018-12-17T07:36:43.649Z,21.83
2018-12-17T07:39:12.341Z,20.57
2018-12-17T07:41:41.076Z,24.23
2018-12-17T07:44:09.710Z,23.57
2018-12-17T07:46:38.962Z,21.13
2018-12-17T07:49:07.490Z,19.73
2018-12-17T07:51:36.320Z,15.13
2018-12-17T07:54:04.862Z,17.73
2018-12-17T07:56:33.710Z,15.83
2018-12-17T07:59:03.660Z,17.70
2018-12-17T08:01:32.551Z,16.47
2018-12-17T08:04:01.254Z,20.60
2018-12-17T08:06:30.113Z,14.83
2018-12-17T08:08:58.804Z,15.87
2018-12-17T08:11:27.280Z,12.60
2018-12-17T08:13:55.979Z,12.53
2018-12-17T08:16:24.455Z,14.23
2018-12-17T08:18:52.956Z,13.60
2018-12-17T08:21:21.809Z,13.77
2018-12-17T08:23:50.497Z,16.93
2018-12-17T08:26:19.225Z,16.17
2018-12-17T08:28:48.091Z,13.27
2018-12-17T08:31:16.770Z,14.67
2018-12-17T08:33:45.483Z,14.20
2018-12-17T08:36:14.133Z,16.60
2018-12-17T08:38:43.244Z,19.37
2018-12-17T08:41:12.277Z,20.97
2018-12-17T08:43:40.819Z,24.47
2018-12-17T08:46:09.265Z,28.73
2018-12-17T08:48:37.797Z,19.93
2018-12-17T08:51:06.070Z,18.47
2018-12-17T08:53:34.713Z,21.20
2018-12-17T08:56:03.443Z,24.07
2018-12-17T08:58:31.932Z,21.67
2018-12-17T09:01:00.806Z,19.90
2018-12-17T09:03:29.695Z,17.30
2018-12-17T09:05:58.585Z,19.77
2018-12-17T09:08:27.269Z,17.63
2018-12-17T09:10:56.183Z,18.43
2018-12-17T09:13:24.816Z,19.07
2018-12-17T09:15:52.802Z,29.27
2018-12-17T09:18:21.420Z,24.93
2018-12-17T09:20:50.293Z,27.23
2018-12-17T09:23:18.887Z,25.07
2018-12-17T09:25:47.460Z,27.23
2018-12-17T09:28:15.446Z,26.87
2018-12-17T09:30:43.447Z,21.97
2018-12-17T09:33:11.511Z,20.47
2018-12-17T09:35:39.577Z,20.50
2018-12-17T09:38:07.543Z,19.90
2018-12-17T09:40:36.301Z,21.93
2018-12-17T09:43:05.187Z,23.60
2018-12-17T09:45:33.976Z,23.07
2018-12-17T09:48:03.489Z,22.37
2018-12-17T09:50:33.287Z,20.87
2018-12-17T09:53:02.172Z,18.43
2018-12-17T09:55:31.004Z,24.00
2018-12-17T09:57:59.789Z,18.40
2018-12-17T10:00:28.431Z,25.17
2018-12-17T10:02:57.127Z,21.30
2018-12-17T10:05:26.750Z,27.93
2018-12-17T10:07:55.272Z,24.90
2018-12-17T10:10:23.806Z,21.27
2018-12-17T10:12:52.466Z,20.57
2018-12-17T10:15:21.130Z,23.63
2018-12-17T10:17:49.874Z,21.70
2018-12-17T10:20:18.453Z,21.63
2018-12-17T10:22:47.227Z,23.00
2018-12-17T10:25:15.929Z,23.13
2018-12-17T10:27:44.566Z,21.40
2018-12-17T10:30:13.479Z,17.30
2018-12-17T10:32:42.569Z,22.37
2018-12-17T10:35:16.127Z,21.87
2018-12-17T10:37:44.670Z,24.43
2018-12-17T10:40:13.680Z,29.97
2018-12-17T10:42:42.201Z,26.67
2018-12-17T10:45:10.929Z,30.37
2018-12-17T10:47:39.780Z,29.50
2018-12-17T10:50:08.819Z,26.77
2018-12-17T10:52:37.359Z,25.17
2018-12-17T10:55:06.283Z,26.93
2018-12-17T10:57:35.158Z,20.23
2018-12-17T11:00:04.202Z,24.53
2018-12-17T11:02:33.640Z,22.30
2018-12-17T11:05:09.613Z,23.53
2018-12-17T11:07:38.481Z,35.77
2018-12-17T11:10:07.978Z,21.40
2018-12-17T11:12:36.517Z,25.40
2018-12-17T11:15:06.749Z,23.20
2018-12-17T11:17:35.266Z,26.87
2018-12-17T11:20:04.927Z,23.13
2018-12-17T11:22:33.686Z,23.07
2018-12-17T11:25:02.165Z,21.23
2018-12-17T11:27:30.882Z,27.57
2018-12-17T11:29:59.779Z,25.97
2018-12-17T11:32:28.447Z,18.80
2018-12-17T11:34:57.877Z,19.90
2018-12-17T11:37:25.903Z,24.37
2018-12-17T11:39:54.511Z,17.73
2018-12-17T11:42:23.173Z,26.17
2018-12-17T11:44:51.850Z,23.93
2018-12-17T11:47:20.533Z,22.30
2018-12-17T11:49:50.233Z,19.30
2018-12-17T11:52:18.739Z,16.03
2018-12-17T11:54:47.181Z,20.07
2018-12-17T11:57:31.437Z,16.43
2018-12-17T12:00:01.239Z,20.20
2018-12-17T12:02:29.851Z,17.70
2018-12-17T12:04:58.427Z,21.53
2018-12-17T12:07:27.213Z,18.93
2018-12-17T12:09:55.742Z,18.33
2018-12-17T12:12:25.547Z,17.30
2018-12-17T12:14:54.652Z,20.03
2018-12-17T12:17:23.172Z,12.40
2018-12-17T12:19:52.428Z,15.47
2018-12-17T12:22:21.169Z,18.70
2018-12-17T12:25:06.830Z,20.80
2018-12-17T12:27:35.318Z,19.23
2018-12-17T12:30:09.218Z,18.93
2018-12-17T12:32:38.539Z,19.23
2018-12-17T12:35:15.003Z,17.73
2018-12-17T12:37:44.414Z,22.57
2018-12-17T12:40:13.129Z,17.67
2018-12-17T12:42:41.971Z,23.00
2018-12-17T12:45:16.233Z,18.20
2018-12-17T12:47:44.716Z,22.33
2018-12-17T12:50:19.807Z,17.10
2018-12-17T12:52:50.237Z,24.33
2018-12-17T12:55:22.554Z,19.37
2018-12-17T12:57:51.917Z,98.63
2018-12-17T13:00:28.034Z,23.50
2018-12-17T13:02:57.271Z,20.20
2018-12-17T13:05:30.370Z,19.73
2018-12-17T13:07:59.162Z,18.07
2018-12-17T13:10:32.504Z,18.83
2018-12-17T13:13:01.239Z,18.27
2018-12-17T13:15:33.483Z,15.57
2018-12-17T13:18:02.289Z,21.27
2018-12-17T13:20:32.073Z,23.60
2018-12-17T13:23:00.701Z,20.27
2018-12-17T13:25:36.667Z,19.03
2018-12-17T13:28:06.084Z,16.33
2018-12-17T13:30:34.747Z,17.33
2018-12-17T13:33:03.437Z,17.20
2018-12-17T13:35:32.345Z,18.93
2018-12-17T13:38:01.246Z,21.70
2018-12-17T13:40:32.154Z,16.77
2018-12-17T13:43:00.152Z,18.37
2018-12-17T13:45:28.184Z,21.57
2018-12-17T13:47:57.598Z,20.27
2018-12-17T13:50:35.408Z,15.60
2018-12-17T13:53:09.030Z,15.90
2018-12-17T13:55:37.587Z,20.50
2018-12-17T13:58:06.483Z,20.53
2018-12-17T14:00:35.388Z,16.13
2018-12-17T14:03:04.464Z,17.03
2018-12-17T14:05:33.419Z,20.37
2018-12-17T14:08:02.289Z,21.67
2018-12-17T14:10:36.522Z,21.03
2018-12-17T14:13:05.362Z,17.50
2018-12-17T14:15:39.963Z,19.00
2018-12-17T14:18:14.122Z,16.77
2018-12-17T14:20:48.236Z,17.13
2018-12-17T14:23:17.087Z,17.00
2018-12-17T14:25:45.992Z,18.30
2018-12-17T14:28:15.454Z,17.13
2018-12-17T14:30:44.189Z,18.80
2018-12-17T14:33:12.855Z,15.97
2018-12-17T14:35:46.034Z,13.93
2018-12-17T14:38:14.041Z,18.47
2018-12-17T14:40:42.564Z,15.10
2018-12-17T14:43:11.290Z,20.23
2018-12-17T14:45:39.958Z,17.10
2018-12-17T14:48:08.443Z,19.93
2018-12-17T14:50:37.357Z,20.57
2018-12-17T14:53:06.213Z,18.53
2018-12-17T14:55:35.125Z,17.00
2018-12-17T14:58:03.812Z,17.20
2018-12-17T15:00:32.701Z,18.80
2018-12-17T15:03:01.570Z,15.70
2018-12-17T15:05:30.490Z,18.17
2018-12-17T15:07:59.125Z,17.43
2018-12-17T15:10:27.634Z,14.67
2018-12-17T15:12:56.454Z,17.80
2018-12-17T15:15:25.006Z,16.47
2018-12-17T15:17:53.886Z,18.03
2018-12-17T15:20:22.607Z,19.37
2018-12-17T15:22:51.249Z,19.70
2018-12-17T15:25:19.948Z,19.53
2018-12-17T15:27:48.900Z,19.30
2018-12-17T15:30:17.751Z,17.63
2018-12-17T15:32:46.624Z,15.43
2018-12-17T15:35:15.320Z,15.47
2018-12-17T15:37:43.324Z,18.00
2018-12-17T15:40:11.338Z,18.80
2018-12-17T15:42:40.966Z,18.70
2018-12-17T15:45:10.057Z,17.40
2018-12-17T15:47:38.723Z,16.30
2018-12-17T15:50:08.023Z,17.67
2018-12-17T15:52:36.722Z,18.60
2018-12-17T15:55:09.583Z,17.13
2018-12-17T15:57:39.192Z,16.43
2018-12-17T16:00:10.069Z,16.83
2018-12-17T16:02:38.812Z,23.70
2018-12-17T16:05:07.519Z,18.60
2018-12-17T16:07:36.448Z,15.37
2018-12-17T16:10:05.585Z,18.23
2018-12-17T16:12:34.393Z,18.63
2018-12-17T16:15:03.225Z,20.50
2018-12-17T16:17:31.765Z,18.07
2018-12-17T16:20:00.231Z,16.03
2018-12-17T16:22:28.938Z,18.17
2018-12-17T16:24:57.617Z,19.27
2018-12-17T16:27:26.087Z,17.80
2018-12-17T16:29:56.273Z,20.40
2018-12-17T16:32:25.801Z,14.53
2018-12-17T16:34:54.408Z,18.77
2018-12-17T16:37:25.745Z,20.83
2018-12-17T16:39:54.432Z,17.80
2018-12-17T16:42:23.765Z,16.27
2018-12-17T16:44:52.438Z,14.80
2018-12-17T16:47:22.427Z,18.50
2018-12-17T16:49:51.179Z,18.80
2018-12-17T16:52:20.122Z,18.57
2018-12-17T16:54:48.235Z,18.20
2018-12-17T16:57:18.107Z,18.13
2018-12-17T16:59:46.817Z,18.73
2018-12-17T17:02:15.490Z,20.40
2018-12-17T17:04:44.355Z,19.50
2018-12-17T17:07:12.956Z,26.30
2018-12-17T17:09:41.727Z,21.10
2018-12-17T17:12:09.718Z,23.17
2018-12-17T17:14:38.649Z,21.60
2018-12-17T17:17:07.156Z,24.27
2018-12-17T17:19:35.856Z,16.10
2018-12-17T17:22:05.373Z,20.57
2018-12-17T17:24:34.240Z,17.93
2018-12-17T17:27:02.932Z,20.43
2018-12-17T17:29:32.644Z,21.13
2018-12-17T17:32:01.795Z,24.33
2018-12-17T17:34:30.415Z,24.60
2018-12-17T17:36:59.369Z,22.90
2018-12-17T17:39:27.999Z,20.57
2018-12-17T17:41:56.448Z,22.20
2018-12-17T17:44:25.212Z,20.97
2018-12-17T17:46:54.070Z,20.17
2018-12-17T17:49:22.541Z,29.70
2018-12-17T17:51:51.461Z,25.87
2018-12-17T17:54:20.312Z,23.60
2018-12-17T17:56:48.792Z,23.57
2018-12-17T17:59:17.280Z,23.40
2018-12-17T18:01:45.747Z,29.67
2018-12-17T18:04:13.894Z,26.80
2018-12-17T18:06:41.903Z,25.30
2018-12-17T18:09:12.845Z,29.07
2018-12-17T18:11:41.548Z,24.47
2018-12-17T18:14:10.267Z,39.40
2018-12-17T18:16:39.588Z,28.93
2018-12-17T18:19:09.337Z,24.03
2018-12-17T18:21:37.876Z,27.00
2018-12-17T18:24:07.421Z,20.97
2018-12-17T18:26:36.151Z,24.87
2018-12-17T18:29:05.806Z,32.37
2018-12-17T18:31:34.516Z,34.87
2018-12-17T18:34:04.861Z,29.80
2018-12-17T18:36:39.582Z,26.83
2018-12-17T18:39:12.041Z,27.70
2018-12-17T18:41:41.279Z,25.53
2018-12-17T18:44:09.992Z,26.70
2018-12-17T18:46:38.871Z,27.73
2018-12-17T18:49:08.926Z,29.30
2018-12-17T18:51:37.789Z,28.43
2018-12-17T18:54:06.812Z,33.60
2018-12-17T18:56:36.062Z,27.67
2018-12-17T18:59:04.622Z,35.17
2018-12-17T19:01:35.043Z,33.77
2018-12-17T19:04:03.832Z,34.40
2018-12-17T19:06:32.675Z,26.40
2018-12-17T19:09:01.201Z,36.43
2018-12-17T19:11:30.915Z,41.43
2018-12-17T19:13:59.555Z,38.40
2018-12-17T19:16:28.105Z,32.80
2018-12-17T19:18:56.925Z,38.10
2018-12-17T19:21:25.753Z,27.70
2018-12-17T19:23:54.334Z,35.90
2018-12-17T19:26:22.949Z,40.33
2018-12-17T19:29:08.681Z,38.60
2018-12-17T19:31:37.539Z,33.77
2018-12-17T19:34:06.275Z,37.43
2018-12-17T19:36:34.982Z,46.43
2018-12-17T19:39:05.618Z,44.13
2018-12-17T19:41:34.342Z,38.70
2018-12-17T19:44:03.078Z,35.80
2018-12-17T19:46:31.914Z,34.17
2018-12-17T19:49:00.784Z,31.03
2018-12-17T19:51:29.649Z,31.40
2018-12-17T19:53:57.941Z,37.73
2018-12-17T19:56:26.474Z,32.57
2018-12-17T19:58:54.974Z,33.77
2018-12-17T20:01:24.350Z,34.43
2018-12-17T20:03:52.917Z,36.40
2018-12-17T20:06:21.658Z,36.33
2018-12-17T20:08:53.065Z,36.10
2018-12-17T20:11:21.831Z,34.10
2018-12-17T20:13:50.509Z,37.33
2018-12-17T20:16:19.439Z,36.80
2018-12-17T20:18:48.131Z,34.33
2018-12-17T20:21:17.150Z,46.20
2018-12-17T20:23:45.931Z,35.87
2018-12-17T20:26:15.613Z,42.73
2018-12-17T20:28:44.271Z,38.17
2018-12-17T20:31:12.969Z,38.87
2018-12-17T20:33:41.669Z,42.63
2018-12-17T20:36:10.114Z,45.23
2018-12-17T20:38:38.816Z,36.03
2018-12-17T20:41:07.316Z,35.57
2018-12-17T20:43:35.965Z,39.87
2018-12-17T20:46:04.680Z,38.20
2018-12-17T20:48:33.573Z,38.57
2018-12-17T20:51:02.015Z,41.50
2018-12-17T20:53:30.506Z,42.43
2018-12-17T20:55:59.006Z,45.07
2018-12-17T21:05:12.617Z,39.13
2018-12-17T21:07:41.269Z,39.87
2018-12-17T21:10:09.944Z,36.07
2018-12-17T21:12:39.371Z,44.00
2018-12-17T21:15:08.825Z,42.20
2018-12-17T21:17:38.045Z,53.93
2018-12-17T21:20:07.094Z,44.77
2018-12-17T21:22:35.614Z,40.53
2018-12-17T21:25:04.886Z,41.97
2018-12-17T21:27:33.514Z,38.27
2018-12-17T21:30:02.083Z,45.23
2018-12-17T21:32:30.559Z,40.80
2018-12-17T21:34:59.056Z,44.40
2018-12-17T21:37:27.529Z,38.60
2018-12-17T21:39:56.011Z,41.97
2018-12-17T21:42:24.852Z,35.20
2018-12-17T21:44:53.581Z,41.67
2018-12-17T21:47:22.271Z,39.37
2018-12-17T21:49:50.981Z,34.07
2018-12-17T21:52:19.872Z,38.37
2018-12-17T21:54:48.531Z,33.40
2018-12-17T21:57:17.106Z,32.30
2018-12-17T21:59:45.693Z,31.03
2018-12-17T22:02:14.153Z,32.67
2018-12-17T22:04:45.001Z,31.93
2018-12-17T22:07:13.591Z,29.70
2018-12-17T22:09:41.847Z,29.90
2018-12-17T22:12:10.596Z,37.73
2018-12-17T22:14:39.456Z,37.33
2018-12-17T22:17:08.124Z,31.03
2018-12-17T22:19:36.618Z,30.77
2018-12-17T22:22:05.079Z,28.30
2018-12-17T22:24:33.756Z,29.87
2018-12-17T22:27:02.694Z,29.93
2018-12-17T22:29:31.130Z,29.10
2018-12-17T22:31:59.825Z,34.63
2018-12-17T22:34:28.535Z,33.60
2018-12-17T22:36:56.993Z,28.33
2018-12-17T22:39:25.696Z,29.97
2018-12-17T22:41:54.211Z,28.20
2018-12-17T22:44:23.048Z,30.60
2018-12-17T22:46:51.520Z,28.17
2018-12-17T22:49:20.256Z,28.30
2018-12-17T22:51:48.689Z,27.40
2018-12-17T22:54:17.379Z,25.70
2018-12-17T22:56:45.892Z,26.83
2018-12-17T22:59:14.548Z,27.67
2018-12-17T23:01:42.898Z,28.10
2018-12-17T23:04:11.524Z,30.07
2018-12-17T23:06:39.980Z,33.07
2018-12-17T23:09:07.828Z,30.90
2018-12-17T23:11:54.542Z,28.27
2018-12-17T23:14:34.268Z,24.30
2018-12-17T23:17:13.844Z,26.13
2018-12-17T23:19:44.343Z,28.30
2018-12-17T23:22:15.001Z,30.53
2018-12-17T23:24:45.041Z,24.40
2018-12-17T23:27:13.128Z,19.93
2018-12-17T23:29:41.135Z,23.93
2018-12-17T23:32:09.116Z,28.63
2018-12-17T23:34:37.424Z,24.30
2018-12-17T23:37:06.237Z,33.83
2018-12-17T23:39:34.212Z,24.57
2018-12-17T23:42:02.969Z,26.13
2018-12-17T23:44:35.469Z,30.93
2018-12-17T23:47:04.015Z,27.73
2018-12-17T23:49:32.504Z,32.17
2018-12-17T23:52:00.980Z,23.20
2018-12-17T23:54:29.441Z,26.40
2018-12-17T23:56:58.160Z,30.63
2018-12-17T23:59:26.832Z,28.00
